Time;durP1;ratioP1;P1;durP2;ratioP2;P2;SDS_P1;SDS_P2;PMS_P1;PMS_P2;Temp;Humidity;BMP_temperature;BMP_pressure;BME280_temperature;BME280_humidity;BME280_pressure;Samples;Min_cycle;Max_cycle;Signal;HPM_P1;HPM_P2
2022/11/04 00:01:25;;;;;;;1999.90;999.90;;;15.70;99.90;;;;;;5136498;27;20125;-78
2022/11/04 00:03:52;;;;;;;1999.90;999.90;;;15.60;99.90;;;;;;5155867;27;20185;-76
2022/11/04 00:06:18;;;;;;;1999.90;999.90;;;14.30;99.90;;;;;;5153700;27;20507;-77
2022/11/04 00:08:48;;;;;;;1999.90;999.90;;;15.70;99.90;;;;;;5137340;27;20062;-76
2022/11/04 00:13:58;;;;;;;1999.90;999.90;;;15.80;99.90;;;;;;5155465;27;20047;-76
2022/11/04 00:19:08;;;;;;;1596.20;753.60;;;15.70;99.90;;;;;;5151268;27;20423;-80
2022/11/04 00:29:46;;;;;;;1999.90;999.90;;;15.40;99.90;;;;;;5155076;27;20513;-78
2022/11/04 00:34:56;;;;;;;1999.90;999.90;;;14.30;99.90;;;;;;5154003;27;20057;-78
2022/11/04 00:37:22;;;;;;;1999.90;999.90;;;15.70;99.90;;;;;;5134358;27;20457;-77
2022/11/04 00:39:48;;;;;;;1999.90;999.90;;;15.60;99.90;;;;;;5154624;27;20039;-78
2022/11/04 00:42:13;;;;;;;1999.90;999.90;;;15.40;99.90;;;;;;5154461;27;20043;-77
2022/11/04 00:44:39;;;;;;;1999.90;999.90;;;15.50;99.90;;;;;;5136845;27;20039;-77
2022/11/04 00:47:05;;;;;;;1999.90;999.90;;;14.50;99.90;;;;;;5135841;27;20459;-77
2022/11/04 00:49:30;;;;;;;1999.90;999.90;;;14.50;99.90;;;;;;5119161;27;20108;-77
2022/11/04 00:51:56;;;;;;;1999.90;999.90;;;14.60;99.90;;;;;;5135799;27;20371;-77
2022/11/04 00:54:22;;;;;;;1999.90;999.90;;;15.40;99.90;;;;;;5154772;27;20073;-77
2022/11/04 00:56:47;;;;;;;1999.90;999.90;;;14.10;99.90;;;;;;5136085;27;20475;-76
2022/11/04 00:59:14;;;;;;;1999.90;999.90;;;15.50;99.90;;;;;;5154735;27;20058;-77
2022/11/04 01:01:40;;;;;;;1999.90;999.90;;;15.10;99.90;;;;;;5135683;27;20042;-76
2022/11/04 01:04:05;;;;;;;1999.90;999.90;;;14.80;99.90;;;;;;5136617;27;20047;-77
2022/11/04 01:06:31;;;;;;;1674.30;756.28;;;15.60;99.90;;;;;;5135155;27;20043;-76
2022/11/04 01:08:59;;;;;;;1999.90;999.90;;;14.00;99.90;;;;;;5154378;27;20437;-78
2022/11/04 01:11:28;;;;;;;1999.90;999.90;;;14.30;99.90;;;;;;5135516;27;20051;-76
2022/11/04 01:13:54;;;;;;;1999.90;999.90;;;14.00;99.90;;;;;;5154720;27;20038;-77
2022/11/04 01:16:21;;;;;;;1999.90;999.90;;;14.10;99.90;;;;;;5135636;27;20042;-77
2022/11/04 01:18:47;;;;;;;1892.28;774.72;;;14.10;99.90;;;;;;5135215;27;20078;-77
2022/11/04 01:21:14;;;;;;;1999.90;999.90;;;15.40;99.90;;;;;;5135045;27;20099;-78
2022/11/04 01:23:41;;;;;;;1759.80;530.08;;;15.30;99.90;;;;;;5132626;27;20133;-76
2022/11/04 01:26:16;;;;;;;1834.30;406.03;;;14.00;99.90;;;;;;5132526;27;20039;-77
2022/11/04 01:28:42;;;;;;;1999.90;999.90;;;14.70;99.90;;;;;;5132868;27;20478;-77
2022/11/04 01:31:10;;;;;;;1999.90;999.90;;;15.40;99.90;;;;;;5132782;27;20043;-77
2022/11/04 01:33:36;;;;;;;1999.90;999.90;;;15.40;99.90;;;;;;5132018;27;20047;-77
2022/11/04 01:36:03;;;;;;;1172.72;272.75;;;14.80;99.90;;;;;;5132341;27;20119;-78
2022/11/04 01:38:29;;;;;;;1999.90;999.90;;;14.20;99.90;;;;;;5131495;27;20386;-77
2022/11/04 01:40:54;;;;;;;1999.90;999.90;;;13.90;99.90;;;;;;5114871;28;20046;-77
2022/11/04 01:43:21;;;;;;;1878.25;787.83;;;14.00;99.90;;;;;;5131573;27;20046;-78
2022/11/04 01:46:00;;;;;;;1999.90;999.90;;;15.40;99.90;;;;;;5114879;27;20087;-77
2022/11/04 01:48:32;;;;;;;1754.15;551.42;;;14.90;99.90;;;;;;5132236;27;20039;-78
2022/11/04 01:50:59;;;;;;;1662.95;86.05;;;15.00;99.90;;;;;;5131764;27;20441;-77
2022/11/04 01:53:32;;;;;;;1819.57;763.03;;;14.80;99.90;;;;;;5130961;27;20054;-77
2022/11/04 01:56:01;;;;;;;1968.80;769.45;;;14.70;99.90;;;;;;5131925;27;20063;-76
2022/11/04 01:58:32;;;;;;;1999.90;999.90;;;13.90;99.90;;;;;;5132391;27;20039;-76
2022/11/04 02:00:58;;;;;;;1999.90;999.90;;;14.20;99.90;;;;;;5132320;27;20053;-77
2022/11/04 02:03:35;;;;;;;1777.03;758.20;;;14.70;99.90;;;;;;5133395;27;20039;-77
2022/11/04 02:06:02;;;;;;;1999.90;999.90;;;15.10;99.90;;;;;;5132486;27;20116;-77
2022/11/04 02:08:28;;;;;;;1213.68;508.15;;;13.80;99.90;;;;;;5132539;27;20051;-77
2022/11/04 02:10:58;;;;;;;1999.90;999.90;;;13.90;99.90;;;;;;5114176;28;20058;-76
2022/11/04 02:13:26;;;;;;;1849.15;763.90;;;15.40;99.90;;;;;;5131922;28;20083;-78
2022/11/04 02:16:23;;;;;;;1999.90;999.90;;;14.10;99.90;;;;;;5132248;27;20047;-76
2022/11/04 02:18:54;;;;;;;1999.90;999.90;;;15.30;99.90;;;;;;5133121;27;20043;-79
2022/11/04 02:21:55;;;;;;;1808.40;765.10;;;15.30;99.90;;;;;;5131870;27;20046;-78
2022/11/04 02:24:40;;;;;;;1999.90;999.90;;;15.40;99.90;;;;;;5146197;27;20098;-77
2022/11/04 02:27:47;;;;;;;1975.72;773.65;;;15.40;99.90;;;;;;5152896;27;20046;-77
2022/11/04 02:30:18;;;;;;;1951.43;770.20;;;15.50;99.90;;;;;;5135077;27;20106;-77
2022/11/04 02:32:59;;;;;;;1999.90;999.90;;;15.50;99.90;;;;;;5134479;27;20034;-76
2022/11/04 02:35:46;;;;;;;1999.90;999.90;;;15.40;99.90;;;;;;5152603;27;20125;-77
2022/11/04 02:38:49;;;;;;;1813.75;766.40;;;14.50;99.90;;;;;;5153074;27;20082;-77
2022/11/04 02:41:51;;;;;;;1999.90;999.90;;;14.20;99.90;;;;;;5083535;27;20125;-78
2022/11/04 02:44:32;;;;;;;1999.90;999.90;;;15.50;99.90;;;;;;5131453;27;20050;-77
2022/11/04 02:46:59;;;;;;;1408.60;516.50;;;14.10;99.90;;;;;;5153207;27;20069;-77
2022/11/04 02:49:46;;;;;;;1780.45;324.20;;;16.30;99.90;;;;;;5154575;27;20156;-77
2022/11/04 02:52:18;;;;;;;1814.97;759.83;;;14.10;99.90;;;;;;5156340;27;20043;-78
2022/11/04 02:54:53;;;;;;;1789.10;767.85;;;14.10;99.90;;;;;;5156095;27;20043;-80
2022/11/04 02:57:25;;;;;;;1999.90;999.90;;;15.50;99.90;;;;;;5156595;27;20495;-77
2022/11/04 03:00:03;;;;;;;1999.90;999.90;;;14.40;99.90;;;;;;5156942;27;20082;-77
2022/11/04 03:02:32;;;;;;;;;;;14.40;99.90;;;;;;5157220;27;20047;-74
2022/11/04 03:04:58;;;;;;;1999.90;999.90;;;15.40;99.90;;;;;;5156803;27;19922;-74
2022/11/04 03:07:30;;;;;;;1999.90;999.90;;;16.90;99.90;;;;;;5156176;27;20119;-76
2022/11/04 03:10:01;;;;;;;1999.90;999.90;;;14.90;99.90;;;;;;5138209;27;20039;-75
2022/11/04 03:12:41;;;;;;;1999.90;999.90;;;15.70;99.90;;;;;;5156379;27;20066;-78
2022/11/04 03:15:14;;;;;;;1999.90;999.90;;;15.70;99.90;;;;;;5121708;27;20079;-78
2022/11/04 03:17:59;;;;;;;1999.90;999.90;;;14.30;99.90;;;;;;5137872;27;20092;-77
2022/11/04 03:20:27;;;;;;;1810.50;765.17;;;15.50;99.90;;;;;;5155736;27;20046;-77
2022/11/04 03:22:59;;;;;;;1999.90;999.90;;;16.70;99.90;;;;;;5137981;27;20046;-76
2022/11/04 03:25:35;;;;;;;1882.82;776.67;;;14.70;99.90;;;;;;5137932;27;20529;-78
2022/11/04 03:28:09;;;;;;;1999.90;999.90;;;15.10;99.90;;;;;;5138733;27;20043;-76
2022/11/04 03:30:44;;;;;;;1669.60;756.03;;;15.50;99.90;;;;;;5155563;27;20068;-77
2022/11/04 03:33:18;;;;;;;1999.90;999.90;;;15.30;99.90;;;;;;5156319;27;20086;-78
2022/11/04 03:35:44;;;;;;;1999.90;999.90;;;15.40;99.90;;;;;;5155295;27;20130;-77
2022/11/04 03:38:10;;;;;;;1999.90;999.90;;;15.20;99.90;;;;;;5156102;27;20183;-77
2022/11/04 03:40:35;;;;;;;1999.90;999.90;;;15.50;99.90;;;;;;5155833;27;20046;-78
2022/11/04 03:43:06;;;;;;;1999.90;999.90;;;15.60;99.90;;;;;;5120625;27;20046;-77
2022/11/04 03:45:32;;;;;;;1999.90;999.90;;;15.10;99.90;;;;;;5137506;27;20046;-78
2022/11/04 03:47:58;;;;;;;1679.20;530.33;;;15.60;99.90;;;;;;5156290;27;20054;-78
2022/11/04 03:50:29;;;;;;;1999.90;999.90;;;14.30;99.90;;;;;;5155312;27;20406;-78
2022/11/04 03:52:57;;;;;;;1999.90;999.90;;;14.30;99.90;;;;;;5155850;27;20050;-78
2022/11/04 03:56:01;;;;;;;1763.03;318.77;;;14.50;99.90;;;;;;5137026;27;20491;-78
2022/11/04 03:59:04;;;;;;;1999.90;999.90;;;15.60;99.90;;;;;;5137894;27;20395;-78
2022/11/04 04:01:54;;;;;;;1999.90;999.90;;;15.50;99.90;;;;;;5136765;27;20042;-80
2022/11/04 04:04:28;;;;;;;1999.90;999.90;;;14.50;99.90;;;;;;5136615;27;20072;-78
2022/11/04 04:07:00;;;;;;;1999.90;999.90;;;14.40;99.90;;;;;;5137242;27;20047;-77
2022/11/04 04:09:53;;;;;;;1847.18;542.53;;;14.90;99.90;;;;;;5137371;27;20038;-78
2022/11/04 04:12:24;;;;;;;1999.90;999.90;;;15.40;99.90;;;;;;5144189;27;20059;-78
2022/11/04 04:15:05;;;;;;;1711.22;762.72;;;15.10;99.90;;;;;;5155101;27;20092;-78
2022/11/04 04:17:43;;;;;;;1770.15;768.55;;;14.40;99.90;;;;;;5136725;27;20046;-78
2022/11/04 04:20:15;;;;;;;1999.90;999.90;;;15.30;99.90;;;;;;5155361;27;20130;-79
2022/11/04 04:22:49;;;;;;;1999.90;999.90;;;15.20;99.90;;;;;;5155170;27;20049;-80
2022/11/04 04:28:02;;;;;;;1999.90;999.90;;;14.90;99.90;;;;;;5155704;27;20100;-78
2022/11/04 04:30:28;;;;;;;1999.90;999.90;;;14.70;99.90;;;;;;5155292;27;20061;-78
2022/11/04 04:32:53;;;;;;;1999.90;999.90;;;15.70;99.90;;;;;;5154573;27;20129;-78
2022/11/04 04:35:43;;;;;;;1999.90;999.90;;;14.30;99.90;;;;;;5154424;27;20125;-78
2022/11/04 04:47:21;;;;;;;1999.90;999.90;;;14.60;99.90;;;;;;5154486;27;20050;-78
2022/11/04 04:49:54;;;;;;;1999.90;999.90;;;15.60;99.90;;;;;;5154427;27;20126;-77
2022/11/04 04:52:22;;;;;;;1779.30;769.65;;;15.60;99.90;;;;;;5154728;27;20041;-77
2022/11/04 04:54:48;;;;;;;;;;;14.30;99.90;;;;;;5153810;27;20482;-78
2022/11/04 04:57:13;;;;;;;1801.13;762.83;;;15.50;99.90;;;;;;5136092;27;19919;-78
2022/11/04 04:59:39;;;;;;;1999.90;999.90;;;15.20;99.90;;;;;;5154763;27;20050;-77
2022/11/04 05:02:05;;;;;;;1999.90;999.90;;;15.20;99.90;;;;;;5136545;27;20061;-77
2022/11/04 05:04:30;;;;;;;1999.90;999.90;;;14.30;99.90;;;;;;5134795;27;20133;-78
2022/11/04 05:06:56;;;;;;;1999.90;999.90;;;15.40;99.90;;;;;;5153002;27;20538;-78
2022/11/04 05:09:22;;;;;;;1999.90;999.90;;;14.20;99.90;;;;;;5117686;27;20055;-77
2022/11/04 05:11:47;;;;;;;1999.90;999.90;;;15.40;99.90;;;;;;5153777;27;20051;-78
2022/11/04 05:14:13;;;;;;;1781.55;759.35;;;14.50;99.90;;;;;;5154649;27;20081;-78
2022/11/04 05:16:39;;;;;;;1999.90;999.90;;;15.40;99.90;;;;;;5134993;27;20491;-79
2022/11/04 05:19:04;;;;;;;1999.90;999.90;;;16.30;99.90;;;;;;5135243;27;20046;-79
2022/11/04 05:21:30;;;;;;;1999.90;999.90;;;15.20;99.90;;;;;;5135030;27;20042;-79
2022/11/04 05:23:56;;;;;;;1999.90;999.90;;;15.00;99.90;;;;;;5153418;27;20509;-78
2022/11/04 05:26:21;;;;;;;1744.18;759.55;;;14.30;99.90;;;;;;5118360;27;20179;-80
2022/11/04 05:28:47;;;;;;;1944.72;780.60;;;14.10;99.90;;;;;;5153792;27;20053;-79
2022/11/04 05:31:13;;;;;;;1999.90;999.90;;;14.30;99.90;;;;;;5136582;27;20050;-85
2022/11/04 05:33:39;;;;;;;1999.90;999.90;;;14.20;99.90;;;;;;5154416;27;20069;-84
2022/11/04 05:36:09;;;;;;;1705.90;757.10;;;15.10;99.90;;;;;;5135410;27;20421;-86
2022/11/04 05:38:35;;;;;;;1999.90;999.90;;;14.50;99.90;;;;;;5154276;27;20398;-84
2022/11/04 05:41:01;;;;;;;1999.90;999.90;;;15.40;99.90;;;;;;5135124;27;20058;-85
2022/11/04 05:43:27;;;;;;;1999.90;999.90;;;14.00;99.90;;;;;;5153944;27;20039;-84
2022/11/04 05:45:54;;;;;;;1929.07;772.22;;;14.80;99.90;;;;;;5118302;27;20489;-85
2022/11/04 05:48:19;;;;;;;1999.90;999.90;;;14.30;99.90;;;;;;5153193;27;20494;-85
2022/11/04 05:50:45;;;;;;;1999.90;999.90;;;14.30;99.90;;;;;;5135220;27;20089;-85
2022/11/04 05:53:11;;;;;;;1791.32;768.88;;;15.10;99.90;;;;;;5154685;27;20137;-85
2022/11/04 05:55:36;;;;;;;1999.90;999.90;;;15.10;99.90;;;;;;5154345;27;20049;-85
2022/11/04 05:58:02;;;;;;;1999.90;999.90;;;15.10;99.90;;;;;;5152786;27;20042;-84
2022/11/04 06:00:28;;;;;;;1999.90;999.90;;;14.00;99.90;;;;;;5135160;27;20044;-83
2022/11/04 06:02:57;;;;;;;1999.90;999.90;;;15.40;99.90;;;;;;5118392;27;20049;-83
2022/11/04 06:05:23;;;;;;;1527.90;100.65;;;14.30;99.90;;;;;;5135133;27;20051;-84
2022/11/04 06:07:49;;;;;;;1999.90;999.90;;;14.10;99.90;;;;;;5135368;27;20057;-83
2022/11/04 06:10:15;;;;;;;1999.90;999.90;;;16.30;99.90;;;;;;5153835;27;20042;-83
2022/11/04 06:12:40;;;;;;;1999.90;999.90;;;15.20;99.90;;;;;;5153831;27;20375;-82
2022/11/04 06:15:07;;;;;;;1999.90;999.90;;;15.10;99.90;;;;;;5133617;27;20082;-82
2022/11/04 06:17:33;;;;;;;1518.88;531.00;;;13.80;99.90;;;;;;5135220;27;20394;-82
2022/11/04 06:19:58;;;;;;;1999.90;999.90;;;13.70;99.90;;;;;;5134328;27;20172;-82
2022/11/04 06:22:24;;;;;;;1999.90;999.90;;;14.90;99.90;;;;;;5153795;27;20091;-82
2022/11/04 06:24:50;;;;;;;1999.90;999.90;;;13.60;99.90;;;;;;5134060;27;20051;-82
2022/11/04 06:27:16;;;;;;;1897.72;763.67;;;14.80;99.90;;;;;;5137753;27;20387;-83
2022/11/04 06:29:41;;;;;;;1947.75;776.03;;;14.90;99.90;;;;;;5136026;27;20047;-82
2022/11/04 06:32:12;;;;;;;1999.90;999.90;;;13.50;99.90;;;;;;5135883;27;20242;-83
2022/11/04 06:34:38;;;;;;;1999.90;999.90;;;13.50;99.90;;;;;;5136443;27;20043;-82
2022/11/04 06:37:04;;;;;;;1801.70;761.92;;;14.70;99.90;;;;;;5136602;27;20035;-82
2022/11/04 06:39:30;;;;;;;1999.90;999.90;;;13.80;99.90;;;;;;5136289;27;20433;-82
2022/11/04 06:41:56;;;;;;;1813.20;543.25;;;14.00;99.90;;;;;;5137108;27;20039;-82
2022/11/04 06:44:22;;;;;;;1782.63;766.67;;;13.20;99.90;;;;;;5136255;27;20475;-82
2022/11/04 06:46:49;;;;;;;1666.60;528.47;;;14.80;99.90;;;;;;5136741;27;20117;-83
2022/11/04 06:49:19;;;;;;;1999.90;784.20;;;14.70;99.90;;;;;;5137431;27;20051;-83
2022/11/04 06:51:46;;;;;;;1923.38;775.33;;;13.40;99.90;;;;;;5136161;27;20043;-83
2022/11/04 06:54:12;;;;;;;1851.20;771.03;;;13.60;99.90;;;;;;5137197;27;20072;-83
2022/11/04 06:56:39;;;;;;;1999.90;799.53;;;14.70;99.90;;;;;;5135684;27;20128;-84
2022/11/04 06:59:05;;;;;;;1999.90;791.72;;;14.00;99.90;;;;;;5135061;27;20087;-83
2022/11/04 07:01:34;;;;;;;1925.20;541.33;;;14.90;99.90;;;;;;5136021;27;20043;-83
2022/11/04 07:04:01;;;;;;;1813.80;770.67;;;14.30;99.90;;;;;;5136835;27;20412;-83
2022/11/04 07:06:28;;;;;;;1999.90;807.90;;;13.90;99.90;;;;;;5135299;27;20495;-83
2022/11/04 07:08:56;;;;;;;1999.90;414.87;;;14.90;99.90;;;;;;5136338;27;20135;-82
2022/11/04 07:11:23;;;;;;;1999.90;804.95;;;14.90;99.90;;;;;;5135787;27;20594;-84
2022/11/04 07:13:49;;;;;;;1999.90;999.90;;;14.80;99.90;;;;;;5135819;27;20391;-82
2022/11/04 07:16:16;;;;;;;1999.90;778.10;;;13.90;99.90;;;;;;5136360;27;20134;-84
2022/11/04 07:18:42;;;;;;;1972.85;330.75;;;14.60;99.90;;;;;;5135494;27;20051;-83
2022/11/04 07:21:09;;;;;;;1999.90;775.38;;;14.80;99.90;;;;;;5117763;27;20504;-83
2022/11/04 07:23:35;;;;;;;1955.65;770.40;;;15.00;99.90;;;;;;5139575;27;20094;-83
2022/11/04 07:26:03;;;;;;;1871.70;773.58;;;13.60;99.90;;;;;;5137955;27;20086;-83
2022/11/04 07:28:28;;;;;;;1998.20;492.48;;;14.10;99.90;;;;;;5138358;27;20065;-84
2022/11/04 07:30:58;;;;;;;1979.00;793.15;;;14.00;99.90;;;;;;5138205;27;20047;-83
2022/11/04 07:33:25;;;;;;;1999.90;999.90;;;13.60;99.90;;;;;;5156543;27;20174;-84
2022/11/04 07:35:52;;;;;;;1999.90;376.53;;;14.80;99.90;;;;;;5154858;27;20138;-82
2022/11/04 07:38:18;;;;;;;1999.90;804.75;;;13.30;99.90;;;;;;5156352;27;20317;-86
2022/11/04 07:40:44;;;;;;;1780.05;530.55;;;14.90;99.90;;;;;;5156574;27;20483;-83
2022/11/04 07:43:10;;;;;;;1999.90;999.90;;;15.00;99.90;;;;;;5156367;27;20126;-83
2022/11/04 07:45:35;;;;;;;1999.90;999.90;;;14.90;99.90;;;;;;5157033;27;20639;-83
2022/11/04 07:48:01;;;;;;;1999.90;999.90;;;15.00;99.90;;;;;;5138080;27;20543;-83
2022/11/04 07:50:27;;;;;;;1999.90;999.90;;;14.00;99.90;;;;;;5157168;27;20129;-83
2022/11/04 07:52:52;;;;;;;1846.22;779.05;;;15.00;99.90;;;;;;5157922;27;20043;-84
2022/11/04 07:55:18;;;;;;;1999.90;196.70;;;15.80;99.90;;;;;;5139707;27;20066;-82
2022/11/04 07:57:45;;;;;;;1999.90;185.77;;;14.70;99.90;;;;;;5139918;27;20047;-82
2022/11/04 08:00:13;;;;;;;1999.90;999.90;;;14.80;99.90;;;;;;5156093;27;20039;-82
2022/11/04 08:02:39;;;;;;;1999.90;788.83;;;13.90;99.90;;;;;;5156639;27;20126;-82
2022/11/04 08:05:06;;;;;;;1999.90;999.90;;;14.30;99.90;;;;;;5156137;27;20436;-82
2022/11/04 08:07:31;;;;;;;1999.90;999.90;;;15.00;99.90;;;;;;5120683;27;20129;-82
2022/11/04 08:09:57;;;;;;;1999.90;999.90;;;13.60;99.90;;;;;;5156429;27;20203;-81
2022/11/04 08:12:23;;;;;;;1820.88;543.92;;;13.80;99.90;;;;;;5138157;27;20554;-81
2022/11/04 08:14:49;;;;;;;1999.90;999.90;;;15.20;99.90;;;;;;5156343;27;20159;-82
2022/11/04 08:17:16;;;;;;;1999.90;999.90;;;15.50;99.90;;;;;;5155741;27;20048;-82
2022/11/04 08:19:42;;;;;;;1698.05;533.75;;;15.30;99.90;;;;;;5137793;27;20521;-82
2022/11/04 08:22:08;;;;;;;1999.90;999.90;;;13.80;99.90;;;;;;5155551;27;20082;-81
2022/11/04 08:24:34;;;;;;;1999.90;999.90;;;15.10;99.90;;;;;;5137282;27;20506;-82
2022/11/04 08:27:00;;;;;;;1999.90;999.90;;;13.80;99.90;;;;;;5155474;27;20471;-82
2022/11/04 08:29:26;;;;;;;1999.90;999.90;;;15.30;99.90;;;;;;5155908;27;20046;-82
2022/11/04 08:31:52;;;;;;;1999.90;999.90;;;14.90;99.90;;;;;;5137675;27;20125;-82
2022/11/04 08:34:18;;;;;;;1875.50;773.63;;;14.20;99.90;;;;;;5155810;27;20066;-81
2022/11/04 08:36:44;;;;;;;1999.90;251.93;;;14.70;99.90;;;;;;5155201;27;20039;-82
2022/11/04 08:39:11;;;;;;;1999.90;999.90;;;15.00;99.90;;;;;;5120209;27;20479;-81
2022/11/04 08:41:39;;;;;;;1469.37;671.27;;;13.90;99.90;;;;;;5155858;27;20046;-81
2022/11/04 08:44:06;;;;;;;1999.90;999.90;;;13.90;99.90;;;;;;5155600;27;20051;-82
2022/11/04 08:46:36;;;;;;;1679.30;525.17;;;15.50;99.90;;;;;;5154510;27;20067;-81
2022/11/04 08:49:03;;;;;;;1999.90;999.90;;;14.20;99.90;;;;;;5120121;27;20470;-81
2022/11/04 08:51:30;;;;;;;1780.97;768.65;;;15.80;99.90;;;;;;5155273;27;20502;-82
2022/11/04 08:53:56;;;;;;;;;;;14.30;99.90;;;;;;5156184;27;20043;-82
2022/11/04 08:56:28;;;;;;;1999.90;999.90;;;15.90;99.90;;;;;;5154530;27;19919;-82
2022/11/04 08:58:54;;;;;;;1999.90;999.90;;;16.10;99.90;;;;;;5155566;27;20045;-81
2022/11/04 09:01:21;;;;;;;1999.90;999.90;;;14.50;99.90;;;;;;5119741;27;20051;-81
2022/11/04 09:03:47;;;;;;;1999.90;999.90;;;14.40;99.90;;;;;;5155546;27;20046;-81
2022/11/04 09:06:18;;;;;;;1999.90;999.90;;;14.60;99.90;;;;;;5154679;27;20042;-81
2022/11/04 09:08:44;;;;;;;1999.90;999.90;;;15.60;99.90;;;;;;5155148;27;20035;-81
2022/11/04 09:11:12;;;;;;;1999.90;999.90;;;14.50;99.90;;;;;;5154617;27;20042;-81
2022/11/04 09:13:39;;;;;;;1999.90;999.90;;;14.50;99.90;;;;;;5120093;27;20125;-81
2022/11/04 09:16:05;;;;;;;1999.90;999.90;;;15.60;99.90;;;;;;5154740;27;20039;-81
2022/11/04 09:18:31;;;;;;;1999.90;999.90;;;16.20;99.90;;;;;;5136430;27;20061;-80
2022/11/04 09:21:03;;;;;;;1999.90;999.90;;;14.60;99.90;;;;;;5154487;27;20129;-81
2022/11/04 09:23:29;;;;;;;1999.90;999.90;;;16.40;99.90;;;;;;5155012;27;20046;-81
2022/11/04 09:25:57;;;;;;;1999.90;999.90;;;14.90;99.90;;;;;;5155118;27;20387;-81
2022/11/04 09:28:23;;;;;;;1999.90;999.90;;;15.30;99.90;;;;;;5136212;27;20107;-81
2022/11/04 09:30:49;;;;;;;1999.90;999.90;;;16.80;99.90;;;;;;5154590;27;20042;-81
2022/11/04 09:33:15;;;;;;;1999.90;999.90;;;17.10;99.90;;;;;;5136460;27;20045;-81
2022/11/04 09:35:41;;;;;;;1999.90;999.90;;;17.30;99.90;;;;;;5102101;27;20053;-81
2022/11/04 09:38:07;;;;;;;1999.90;999.90;;;15.90;99.90;;;;;;5135963;27;20043;-82
2022/11/04 09:40:35;;;;;;;1999.90;999.90;;;16.50;99.90;;;;;;5135980;27;20038;-81
2022/11/04 09:43:09;;;;;;;;;;;17.00;99.90;;;;;;5155217;27;20042;-81
2022/11/04 09:45:40;;;;;;;1999.90;999.90;;;18.00;99.90;;;;;;5154629;27;20055;-80
2022/11/04 09:48:17;;;;;;;1999.90;999.90;;;17.30;99.90;;;;;;5154673;27;20034;-81
2022/11/04 09:50:54;;;;;;;1999.90;999.90;;;16.80;99.90;;;;;;5153998;27;20164;-81
2022/11/04 09:53:35;;;;;;;1999.90;999.90;;;18.10;99.90;;;;;;5135931;27;20099;-81
2022/11/04 09:56:15;;;;;;;1999.90;999.90;;;16.80;99.90;;;;;;5154528;27;20046;-81
2022/11/04 09:58:42;;;;;;;1999.90;999.90;;;17.60;99.90;;;;;;5154319;27;20057;-81
2022/11/04 10:01:32;;;;;;;1999.90;999.90;;;16.60;99.90;;;;;;5153847;27;20051;-81
2022/11/04 10:04:10;;;;;;;1999.90;999.90;;;17.70;99.90;;;;;;5154436;27;20054;-81
2022/11/04 10:06:48;;;;;;;1999.90;999.90;;;17.00;99.90;;;;;;5135715;27;20050;-80
2022/11/04 10:09:29;;;;;;;1999.90;999.90;;;17.00;99.90;;;;;;5154243;27;20046;-81
2022/11/04 10:12:00;;;;;;;1999.90;999.90;;;17.30;99.90;;;;;;5135891;27;20694;-81
2022/11/04 10:14:29;;;;;;;1999.90;999.90;;;16.50;99.90;;;;;;5118414;27;20054;-81
2022/11/04 10:17:23;;;;;;;1999.90;999.90;;;16.10;99.90;;;;;;5135846;27;20038;-81
2022/11/04 10:20:17;;;;;;;1999.90;999.90;;;16.20;99.90;;;;;;5153769;27;20047;-81
2022/11/04 10:23:24;;;;;;;1999.90;999.90;;;15.70;99.90;;;;;;5135639;27;20491;-81
2022/11/04 10:26:16;;;;;;;1999.90;999.90;;;16.00;99.90;;;;;;5153479;27;20495;-80
2022/11/04 10:28:51;;;;;;;1999.90;999.90;;;16.80;99.90;;;;;;5136064;27;20090;-80
2022/11/04 10:31:17;;;;;;;1999.90;999.90;;;17.00;99.90;;;;;;5135180;27;20051;-79
2022/11/04 10:33:52;;;;;;;1999.90;999.90;;;16.50;99.90;;;;;;5135917;27;20435;-80
2022/11/04 10:36:19;;;;;;;1999.90;999.90;;;16.50;99.90;;;;;;5135053;27;20054;-80
2022/11/04 10:38:54;;;;;;;1999.90;999.90;;;16.40;99.90;;;;;;5154121;27;20086;-80
2022/11/04 10:41:31;;;;;;;1999.90;999.90;;;17.30;99.90;;;;;;5153449;27;20047;-81
2022/11/04 10:44:22;;;;;;;1999.90;999.90;;;17.20;99.90;;;;;;5135974;27;20478;-80
2022/11/04 10:47:14;;;;;;;1999.90;999.90;;;17.10;99.90;;;;;;5135144;27;20078;-81
2022/11/04 10:50:14;;;;;;;1999.90;999.90;;;16.50;99.90;;;;;;5153847;27;20092;-81
2022/11/04 10:52:41;;;;;;;1999.90;999.90;;;17.10;99.90;;;;;;5135188;27;20043;-80
2022/11/04 10:55:24;;;;;;;1999.90;999.90;;;16.50;99.90;;;;;;5154216;27;20057;-81
2022/11/04 10:57:55;;;;;;;1999.90;999.90;;;17.30;99.90;;;;;;5153931;27;20042;-81
2022/11/04 11:00:35;;;;;;;1999.90;999.90;;;17.10;99.90;;;;;;5135448;27;20082;-81
2022/11/04 11:03:01;;;;;;;1999.90;999.90;;;16.70;99.90;;;;;;5153647;27;20058;-81
2022/11/04 11:05:28;;;;;;;1999.90;999.90;;;17.10;99.90;;;;;;5153186;27;20053;-81
2022/11/04 11:07:56;;;;;;;1999.90;999.90;;;16.70;99.90;;;;;;5135576;27;20050;-81
2022/11/04 11:10:29;;;;;;;1999.90;999.90;;;17.00;99.90;;;;;;5154981;27;20089;-81
2022/11/04 11:13:06;;;;;;;1999.90;999.90;;;17.10;99.90;;;;;;5157392;27;20042;-81
2022/11/04 11:15:37;;;;;;;1999.90;999.90;;;16.90;99.90;;;;;;5157332;27;20046;-81
2022/11/04 11:18:27;;;;;;;1999.90;999.90;;;16.80;99.90;;;;;;5157575;27;20042;-81
2022/11/04 11:21:22;;;;;;;1999.90;999.90;;;17.20;99.90;;;;;;5138815;27;20078;-82
2022/11/04 11:23:50;;;;;;;1999.90;999.90;;;17.10;99.90;;;;;;5154922;27;20400;-82
2022/11/04 11:26:27;;;;;;;1999.90;999.90;;;16.90;99.90;;;;;;5157273;27;20059;-81
2022/11/04 11:28:56;;;;;;;1999.90;999.90;;;17.00;99.90;;;;;;5157268;27;20547;-81
2022/11/04 11:31:25;;;;;;;1999.90;999.90;;;16.90;99.90;;;;;;5156671;27;20559;-81
2022/11/04 11:33:58;;;;;;;1999.90;999.90;;;16.80;99.90;;;;;;5157150;27;20354;-81
2022/11/04 11:36:30;;;;;;;1999.90;999.90;;;16.80;99.90;;;;;;5156765;27;20042;-81
2022/11/04 11:39:04;;;;;;;1999.90;999.90;;;16.90;99.90;;;;;;5157290;27;20121;-81
2022/11/04 11:41:47;;;;;;;1999.90;999.90;;;17.00;99.90;;;;;;5157058;27;20049;-81
2022/11/04 11:44:45;;;;;;;1999.90;999.90;;;16.80;99.90;;;;;;5121907;27;20042;-82
2022/11/04 11:47:29;;;;;;;1999.90;999.90;;;17.20;99.90;;;;;;5128658;27;20043;-81
2022/11/04 11:50:13;;;;;;;1999.90;999.90;;;17.30;99.90;;;;;;5121620;27;20041;-81
2022/11/04 11:52:43;;;;;;;1999.90;999.90;;;17.40;99.90;;;;;;5156643;27;20042;-81
2022/11/04 11:55:09;;;;;;;1999.90;999.90;;;17.00;99.90;;;;;;5156856;27;20114;-82
2022/11/04 11:57:41;;;;;;;1999.90;999.90;;;16.60;99.90;;;;;;5138523;27;20113;-81
2022/11/04 12:00:15;;;;;;;1999.90;999.90;;;17.40;99.90;;;;;;5139095;27;20138;-82
2022/11/04 12:02:46;;;;;;;1999.90;999.90;;;16.00;99.90;;;;;;5156842;27;20126;-81
2022/11/04 12:05:13;;;;;;;1999.90;999.90;;;17.10;99.90;;;;;;5121466;27;20095;-81
2022/11/04 12:08:14;;;;;;;1999.90;999.90;;;16.50;99.90;;;;;;5157419;27;20035;-82
2022/11/04 12:10:43;;;;;;;1999.90;999.90;;;15.70;99.90;;;;;;5142531;27;20632;-82
2022/11/04 12:13:17;;;;;;;1999.90;999.90;;;16.00;99.90;;;;;;5163315;27;20046;-81
2022/11/04 12:16:04;;;;;;;1999.90;999.90;;;15.70;99.90;;;;;;5163455;27;20043;-81
2022/11/04 12:18:39;;;;;;;1999.90;999.90;;;15.60;99.90;;;;;;5162814;27;20046;-81
2022/11/04 12:21:18;;;;;;;1999.90;999.90;;;17.10;99.90;;;;;;5162523;27;20054;-81
2022/11/04 12:24:42;;;;;;;1999.90;999.90;;;17.10;99.90;;;;;;5157953;27;20057;-83
2022/11/04 12:27:21;;;;;;;1999.90;999.90;;;16.80;99.90;;;;;;5055506;28;20052;-83
2022/11/04 12:29:59;;;;;;;1999.90;999.90;;;17.20;99.90;;;;;;5072014;28;20110;-82
2022/11/04 12:32:47;;;;;;;1999.90;999.90;;;17.60;99.90;;;;;;5124194;27;20058;-82
2022/11/04 12:35:39;;;;;;;1999.90;999.90;;;17.50;99.90;;;;;;5155960;27;20095;-83
2022/11/04 12:38:16;;;;;;;1999.90;999.90;;;16.30;99.90;;;;;;5156166;27;20100;-83
2022/11/04 12:41:02;;;;;;;1999.90;999.90;;;16.40;99.90;;;;;;5155489;27;20346;-83
2022/11/04 12:43:33;;;;;;;1999.90;999.90;;;17.10;99.90;;;;;;5154439;27;20050;-83
2022/11/04 12:46:20;;;;;;;1999.90;999.90;;;17.20;99.90;;;;;;5155526;27;20100;-84
2022/11/04 12:49:01;;;;;;;1999.90;999.90;;;15.80;99.90;;;;;;5155022;27;20079;-83
2022/11/04 12:51:35;;;;;;;1999.90;999.90;;;15.70;99.90;;;;;;5136585;27;20051;-83